createdAt,value
2023-03-16T00:02:04.752Z,50.52
2023-03-16T00:04:32.444Z,50.43
2023-03-16T00:06:59.805Z,50.52
2023-03-16T00:09:31.275Z,51.05
2023-03-16T00:12:04.591Z,51.25
2023-03-16T00:14:32.300Z,50.57
2023-03-16T00:16:59.784Z,50.99
2023-03-16T00:19:27.060Z,50.46
2023-03-16T00:21:54.436Z,50.39
2023-03-16T00:24:25.082Z,50.65
2023-03-16T00:26:54.949Z,50.93
2023-03-16T00:29:25.064Z,51.25
2023-03-16T00:31:52.475Z,51.60
2023-03-16T00:34:19.851Z,51.66
2023-03-16T00:36:47.189Z,51.17
2023-03-16T00:39:14.955Z,51.38
2023-03-16T00:41:43.005Z,51.62
2023-03-16T00:44:10.459Z,51.13
2023-03-16T00:46:37.814Z,51.22
2023-03-16T00:49:05.165Z,51.05
2023-03-16T00:51:34.021Z,51.64
2023-03-16T00:54:01.405Z,51.59
2023-03-16T00:56:29.338Z,51.91
2023-03-16T00:58:58.059Z,51.88
2023-03-16T01:01:27.518Z,52.07
2023-03-16T01:03:55.090Z,51.54
2023-03-16T01:06:22.636Z,51.78
2023-03-16T01:08:49.983Z,52.28
2023-03-16T01:11:18.617Z,51.74
2023-03-16T01:13:49.428Z,51.40
2023-03-16T01:16:19.196Z,51.64
2023-03-16T01:18:49.994Z,51.53
2023-03-16T01:21:17.990Z,51.98
2023-03-16T01:23:45.339Z,52.12
2023-03-16T01:26:12.883Z,52.13
2023-03-16T01:28:40.237Z,52.08
2023-03-16T01:31:09.435Z,52.15
2023-03-16T01:33:37.129Z,51.78
2023-03-16T01:36:09.051Z,52.21
2023-03-16T01:38:43.990Z,51.67
2023-03-16T01:41:11.575Z,51.56
2023-03-16T01:43:39.572Z,51.77
2023-03-16T01:46:07.075Z,52.16
2023-03-16T01:49:12.821Z,52.29
2023-03-16T01:51:50.864Z,52.24
2023-03-16T01:54:24.474Z,52.23
2023-03-16T01:57:16.180Z,51.99
2023-03-16T01:59:48.833Z,52.00
2023-03-16T02:02:18.876Z,51.79
2023-03-16T02:04:54.542Z,52.13
2023-03-16T02:07:24.771Z,52.06
2023-03-16T02:09:55.002Z,52.08
2023-03-16T02:12:24.643Z,52.09
2023-03-16T02:14:55.083Z,52.57
2023-03-16T02:17:25.506Z,52.49
2023-03-16T02:20:24.710Z,52.50
2023-03-16T02:22:55.788Z,52.82
2023-03-16T02:25:25.189Z,52.53
2023-03-16T02:28:02.429Z,53.07
2023-03-16T02:30:30.973Z,53.14
2023-03-16T02:33:01.819Z,53.39
2023-03-16T02:35:29.161Z,53.21
2023-03-16T02:37:56.520Z,52.78
2023-03-16T02:40:30.732Z,53.05
2023-03-16T02:43:05.751Z,52.66
2023-03-16T02:45:43.639Z,53.34
2023-03-16T02:48:27.492Z,52.86
2023-03-16T02:50:54.926Z,52.14
2023-03-16T02:53:22.694Z,52.24
2023-03-16T02:55:50.227Z,52.37
2023-03-16T02:58:18.356Z,52.67
2023-03-16T03:00:47.170Z,52.76
2023-03-16T03:03:17.053Z,52.77
2023-03-16T03:05:44.407Z,53.18
2023-03-16T03:08:11.753Z,53.33
2023-03-16T03:10:39.419Z,53.46
2023-03-16T03:13:07.454Z,53.53
2023-03-16T03:15:35.149Z,54.35
2023-03-16T03:18:07.523Z,53.71
2023-03-16T03:20:34.856Z,53.44
2023-03-16T03:23:03.159Z,53.25
2023-03-16T03:25:30.495Z,53.17
2023-03-16T03:27:58.027Z,53.62
2023-03-16T03:30:26.186Z,53.42
2023-03-16T03:32:53.900Z,53.28
2023-03-16T03:35:22.059Z,52.76
2023-03-16T03:37:49.895Z,53.24
2023-03-16T03:40:18.440Z,53.14
2023-03-16T03:42:48.547Z,53.10
2023-03-16T03:45:16.418Z,52.97
2023-03-16T03:47:44.410Z,53.16
2023-03-16T03:50:16.650Z,53.53
2023-03-16T03:52:52.416Z,53.06
2023-03-16T03:55:19.918Z,52.94
2023-03-16T03:57:47.272Z,53.50
2023-03-16T04:00:14.944Z,53.67
2023-03-16T04:02:43.714Z,53.96
2023-03-16T04:05:19.949Z,54.13
2023-03-16T04:07:55.098Z,54.15
2023-03-16T04:10:27.796Z,54.29
2023-03-16T04:12:58.836Z,54.58
2023-03-16T04:15:27.352Z,54.76
2023-03-16T04:18:04.056Z,55.50
2023-03-16T04:20:31.658Z,55.12
2023-03-16T04:22:58.968Z,54.89
2023-03-16T04:25:26.776Z,55.31
2023-03-16T04:27:54.400Z,55.73
2023-03-16T04:30:24.258Z,55.31
2023-03-16T04:32:55.323Z,55.91
2023-03-16T04:35:23.813Z,55.92
2023-03-16T04:37:56.906Z,55.35
2023-03-16T04:40:31.380Z,55.49
2023-03-16T04:43:08.345Z,55.34
2023-03-16T04:45:36.442Z,55.19
2023-03-16T04:48:04.100Z,55.00
2023-03-16T04:50:31.508Z,55.14
2023-03-16T04:52:58.782Z,54.82
2023-03-16T04:55:27.035Z,55.44
2023-03-16T04:57:54.538Z,55.09
2023-03-16T05:00:23.751Z,54.87
2023-03-16T05:03:04.274Z,55.87
2023-03-16T05:05:31.788Z,56.14
2023-03-16T05:07:59.215Z,55.91
2023-03-16T05:10:29.063Z,56.43
2023-03-16T05:12:57.718Z,56.89
2023-03-16T05:15:25.171Z,56.90
2023-03-16T05:18:02.823Z,57.46
2023-03-16T05:20:30.438Z,56.77
2023-03-16T05:23:00.667Z,56.78
2023-03-16T05:25:31.318Z,56.97
2023-03-16T05:28:02.579Z,57.41
2023-03-16T05:30:36.907Z,57.77
2023-03-16T05:33:07.011Z,57.86
2023-03-16T05:35:35.131Z,57.42
2023-03-16T05:38:06.764Z,58.07
2023-03-16T05:40:37.395Z,58.01
2023-03-16T05:43:34.424Z,57.19
2023-03-16T05:46:02.376Z,57.83
2023-03-16T05:48:29.767Z,57.17
2023-03-16T05:50:59.073Z,57.32
2023-03-16T05:53:29.370Z,57.14
2023-03-16T05:56:03.813Z,56.62
2023-03-16T05:58:34.061Z,56.90
2023-03-16T06:01:06.177Z,57.20
2023-03-16T06:03:33.743Z,56.65
2023-03-16T06:06:02.209Z,57.61
2023-03-16T06:08:38.840Z,56.26
2023-03-16T06:11:12.228Z,56.53
2023-03-16T06:13:40.349Z,56.23
2023-03-16T06:16:08.028Z,55.92
2023-03-16T06:18:36.404Z,55.56
2023-03-16T06:21:04.538Z,54.95
2023-03-16T06:23:34.147Z,54.69
2023-03-16T06:26:02.041Z,54.53
2023-03-16T06:28:31.555Z,54.78
2023-03-16T06:30:59.053Z,54.19
2023-03-16T06:33:30.346Z,53.62
2023-03-16T06:35:57.830Z,54.21
2023-03-16T06:38:32.446Z,53.63
2023-03-16T06:41:02.848Z,53.68
2023-03-16T06:43:33.335Z,53.33
2023-03-16T06:46:01.757Z,53.78
2023-03-16T06:48:29.645Z,52.77
2023-03-16T06:50:58.648Z,53.73
2023-03-16T06:53:28.192Z,53.36
2023-03-16T06:55:57.003Z,53.26
2023-03-16T06:58:25.471Z,53.12
2023-03-16T07:00:54.146Z,53.02
2023-03-16T07:03:21.812Z,52.17
2023-03-16T07:05:59.264Z,51.64
2023-03-16T07:08:30.505Z,51.33
2023-03-16T07:10:58.250Z,49.56
2023-03-16T07:13:55.934Z,48.34
2023-03-16T07:16:26.510Z,47.66
2023-03-16T07:18:58.991Z,46.21
2023-03-16T07:21:29.059Z,46.32
2023-03-16T07:24:02.472Z,46.83
2023-03-16T07:37:47.400Z,42.42
2023-03-16T07:40:28.655Z,42.31
2023-03-16T07:43:10.698Z,41.16
2023-03-16T07:45:51.370Z,40.76
2023-03-16T07:48:19.998Z,40.35
2023-03-16T07:50:54.386Z,39.33
2023-03-16T07:53:22.831Z,39.61
2023-03-16T07:55:55.953Z,40.23
2023-03-16T07:58:23.324Z,40.62
2023-03-16T08:00:51.249Z,40.76
2023-03-16T08:03:20.082Z,40.36
2023-03-16T08:05:47.768Z,39.61
2023-03-16T08:08:16.801Z,38.80
2023-03-16T08:10:44.562Z,38.76
2023-03-16T08:13:15.595Z,38.98
2023-03-16T08:15:58.542Z,38.70
2023-03-16T08:18:37.452Z,39.09
2023-03-16T08:21:05.873Z,39.92
2023-03-16T08:23:33.996Z,39.35
2023-03-16T08:26:01.375Z,39.37
2023-03-16T08:28:29.806Z,38.65
2023-03-16T08:31:01.437Z,38.18
2023-03-16T08:33:42.820Z,38.81
2023-03-16T08:36:12.314Z,38.76
2023-03-16T08:38:41.056Z,38.81
2023-03-16T08:41:12.608Z,38.90
2023-03-16T08:43:44.523Z,38.98
2023-03-16T08:46:13.442Z,38.98
2023-03-16T08:48:48.680Z,38.59
2023-03-16T08:51:17.602Z,38.67
2023-03-16T08:53:45.354Z,39.47
2023-03-16T08:56:14.295Z,39.06
2023-03-16T08:58:45.440Z,38.56
2023-03-16T09:01:14.025Z,38.85
2023-03-16T09:03:42.534Z,38.31
2023-03-16T09:06:11.139Z,36.70
2023-03-16T09:08:41.297Z,36.77
2023-03-16T09:11:10.500Z,36.75
2023-03-16T09:13:38.796Z,36.32
2023-03-16T09:16:07.486Z,36.02
2023-03-16T09:18:36.362Z,36.64
2023-03-16T09:21:05.476Z,37.09
2023-03-16T09:23:32.990Z,36.51
2023-03-16T09:26:05.517Z,36.29
2023-03-16T09:28:33.220Z,36.36
2023-03-16T09:31:01.558Z,36.71
2023-03-16T09:33:30.051Z,37.20
2023-03-16T09:35:57.647Z,36.13
2023-03-16T09:38:27.565Z,36.55
2023-03-16T09:41:04.998Z,36.32
2023-03-16T09:43:43.319Z,35.69
2023-03-16T09:46:30.284Z,35.01
2023-03-16T09:48:58.090Z,35.41
2023-03-16T09:51:43.491Z,35.58
2023-03-16T09:54:23.643Z,35.94
2023-03-16T09:56:51.214Z,35.68
2023-03-16T09:59:19.145Z,35.13
2023-03-16T10:02:05.093Z,34.29
2023-03-16T10:04:32.396Z,34.53
2023-03-16T10:07:22.780Z,34.73
2023-03-16T10:10:04.746Z,34.44
2023-03-16T10:12:38.193Z,33.98
2023-03-16T10:15:16.999Z,33.99
2023-03-16T10:17:52.760Z,33.82
2023-03-16T10:20:21.717Z,34.71
2023-03-16T10:22:50.974Z,33.52
2023-03-16T10:25:44.070Z,33.63
2023-03-16T10:28:13.734Z,33.75
2023-03-16T10:30:43.014Z,32.99
2023-03-16T10:33:25.946Z,34.01
2023-03-16T10:35:53.157Z,33.80
2023-03-16T10:38:50.676Z,33.65
2023-03-16T10:41:18.073Z,33.03
2023-03-16T10:43:52.919Z,32.36
2023-03-16T10:46:20.277Z,32.51
2023-03-16T10:49:01.593Z,32.39
2023-03-16T10:51:36.161Z,31.46
2023-03-16T10:54:27.784Z,31.63
2023-03-16T10:56:55.448Z,31.67
2023-03-16T10:59:29.561Z,31.98
2023-03-16T11:01:57.195Z,31.18
2023-03-16T11:04:25.177Z,32.07
2023-03-16T11:06:56.572Z,31.24
2023-03-16T11:09:26.189Z,32.07
2023-03-16T11:11:54.020Z,32.46
2023-03-16T11:14:23.381Z,31.52
2023-03-16T11:16:59.249Z,30.90
2023-03-16T11:19:31.446Z,31.28
2023-03-16T11:21:59.000Z,30.18
2023-03-16T11:24:42.255Z,30.33
2023-03-16T11:27:24.673Z,30.87
2023-03-16T11:30:07.278Z,30.40
2023-03-16T11:32:41.607Z,30.13
2023-03-16T11:35:17.728Z,28.88
2023-03-16T11:38:07.829Z,28.96
2023-03-16T11:40:44.071Z,28.90
2023-03-16T11:43:36.326Z,28.99
2023-03-16T11:46:14.074Z,28.79
2023-03-16T11:48:47.415Z,29.91
2023-03-16T11:51:30.614Z,29.18
2023-03-16T11:54:07.866Z,29.78
2023-03-16T11:56:39.639Z,29.53
2023-03-16T11:59:19.041Z,28.18
2023-03-16T12:02:00.128Z,28.82
2023-03-16T12:04:43.101Z,28.34
2023-03-16T12:07:21.917Z,26.76
2023-03-16T12:10:08.000Z,25.94
2023-03-16T12:12:42.755Z,26.83
2023-03-16T12:15:24.377Z,26.37
2023-03-16T12:17:54.037Z,25.96
2023-03-16T12:20:31.759Z,26.54
2023-03-16T12:23:02.936Z,27.18
2023-03-16T12:25:32.908Z,27.78
2023-03-16T12:28:02.153Z,27.61
2023-03-16T12:30:38.693Z,26.06
2023-03-16T12:33:28.413Z,25.51
2023-03-16T12:36:22.636Z,24.79
2023-03-16T12:38:53.372Z,26.20
2023-03-16T12:41:33.845Z,25.53
2023-03-16T12:44:12.810Z,26.41
2023-03-16T12:47:07.956Z,25.84
2023-03-16T12:49:36.537Z,25.62
2023-03-16T12:52:10.096Z,25.22
2023-03-16T12:54:49.920Z,24.89
2023-03-16T12:57:18.605Z,24.64
2023-03-16T12:59:47.122Z,24.82
2023-03-16T13:02:26.467Z,24.08
2023-03-16T13:05:01.733Z,24.36
2023-03-16T13:07:31.172Z,24.99
2023-03-16T13:10:10.056Z,24.90
2023-03-16T13:12:38.304Z,25.02
2023-03-16T13:15:19.995Z,25.41
2023-03-16T13:17:48.099Z,24.93
2023-03-16T13:20:32.018Z,25.79
2023-03-16T13:23:09.881Z,25.81
2023-03-16T13:25:44.632Z,26.91
2023-03-16T13:28:15.595Z,26.03
2023-03-16T13:30:48.677Z,25.64
2023-03-16T13:33:20.596Z,24.62
2023-03-16T13:35:49.075Z,24.97
2023-03-16T13:38:16.847Z,25.45
2023-03-16T13:40:48.705Z,25.92
2023-03-16T13:43:17.250Z,25.05
2023-03-16T13:45:44.589Z,25.34
2023-03-16T13:48:16.310Z,25.67
2023-03-16T13:50:44.571Z,25.37
2023-03-16T13:53:24.704Z,26.50
2023-03-16T13:55:52.854Z,25.33
2023-03-16T13:58:26.627Z,25.90
2023-03-16T14:00:58.080Z,26.74
2023-03-16T14:03:38.008Z,27.20
2023-03-16T14:06:06.191Z,26.71
2023-03-16T14:08:33.915Z,25.58
2023-03-16T14:11:01.698Z,25.40
2023-03-16T14:13:39.307Z,25.55
2023-03-16T14:16:12.947Z,24.61
2023-03-16T14:19:02.129Z,24.65
2023-03-16T14:21:34.265Z,25.55
2023-03-16T14:24:06.336Z,25.64
2023-03-16T14:26:44.819Z,24.34
2023-03-16T14:29:30.575Z,23.14
2023-03-16T14:31:59.144Z,22.21
2023-03-16T14:34:37.268Z,22.45
2023-03-16T14:37:14.820Z,21.32
2023-03-16T14:39:42.266Z,21.26
2023-03-16T14:42:28.767Z,21.36
2023-03-16T14:45:00.003Z,21.54
2023-03-16T14:47:32.102Z,21.00
2023-03-16T14:50:04.623Z,21.40
2023-03-16T14:52:32.709Z,21.21
2023-03-16T14:55:03.306Z,21.06
2023-03-16T14:57:31.350Z,20.80
2023-03-16T14:59:58.679Z,21.07
2023-03-16T15:02:28.859Z,21.31
2023-03-16T15:04:58.905Z,21.33
2023-03-16T15:07:40.504Z,21.26
2023-03-16T15:10:24.860Z,21.94
2023-03-16T15:12:55.030Z,21.86
2023-03-16T15:15:23.628Z,22.60
2023-03-16T15:17:51.923Z,22.21
2023-03-16T15:20:22.656Z,22.02
2023-03-16T15:22:51.939Z,23.86
2023-03-16T15:25:28.129Z,24.66
2023-03-16T15:27:55.508Z,26.31
2023-03-16T15:30:26.642Z,26.72
2023-03-16T15:36:53.603Z,28.63
2023-03-16T15:39:22.336Z,28.47
2023-03-16T15:41:50.520Z,28.73
2023-03-16T15:44:17.914Z,29.08
2023-03-16T15:46:48.711Z,29.07
2023-03-16T15:49:16.070Z,28.66
2023-03-16T15:51:43.510Z,28.86
2023-03-16T15:54:11.683Z,29.20
2023-03-16T15:56:53.231Z,28.61
2023-03-16T15:59:23.401Z,28.62
2023-03-16T16:01:50.758Z,28.46
2023-03-16T16:04:20.153Z,28.39
2023-03-16T16:06:47.951Z,28.84
2023-03-16T16:09:15.199Z,28.63
2023-03-16T16:11:42.532Z,29.59
2023-03-16T16:14:13.783Z,29.58
2023-03-16T16:16:41.088Z,29.96
2023-03-16T16:19:13.381Z,29.78
2023-03-16T16:21:41.559Z,30.20
2023-03-16T16:24:09.617Z,30.52
2023-03-16T16:26:50.020Z,30.05
2023-03-16T16:29:22.448Z,30.54
2023-03-16T16:31:51.556Z,31.14
2023-03-16T16:34:27.251Z,31.32
2023-03-16T16:36:55.251Z,30.95
2023-03-16T16:39:22.563Z,30.77
2023-03-16T16:41:50.404Z,31.31
2023-03-16T16:44:20.035Z,31.59
2023-03-16T16:46:48.137Z,31.92
2023-03-16T16:49:23.823Z,32.36
2023-03-16T16:51:52.414Z,32.76
2023-03-16T16:54:29.618Z,33.36
2023-03-16T16:56:57.559Z,34.33
2023-03-16T16:59:32.449Z,34.23
2023-03-16T17:02:00.788Z,34.77
2023-03-16T17:04:28.891Z,34.81
2023-03-16T17:06:58.944Z,35.74
2023-03-16T17:09:27.244Z,35.79
2023-03-16T17:11:56.220Z,36.11
2023-03-16T17:14:28.468Z,36.01
2023-03-16T17:16:56.185Z,36.47
2023-03-16T17:19:25.168Z,36.43
2023-03-16T17:21:52.990Z,36.62
2023-03-16T17:24:20.280Z,36.08
2023-03-16T17:26:52.301Z,36.90
2023-03-16T17:29:25.695Z,37.03
2023-03-16T17:31:53.279Z,37.37
2023-03-16T17:34:22.415Z,37.62
2023-03-16T17:36:49.851Z,37.95
2023-03-16T17:39:25.030Z,37.71
2023-03-16T17:41:54.333Z,37.65
2023-03-16T17:44:21.690Z,38.01
2023-03-16T17:46:49.036Z,38.12
2023-03-16T17:49:20.703Z,37.75
2023-03-16T17:51:47.969Z,37.15
2023-03-16T17:54:15.324Z,37.51
2023-03-16T17:56:50.603Z,38.01
2023-03-16T17:59:21.650Z,38.26
2023-03-16T18:01:49.038Z,38.75
2023-03-16T18:04:21.181Z,38.31
2023-03-16T18:06:49.191Z,39.29
2023-03-16T18:09:16.927Z,38.36
2023-03-16T18:11:51.195Z,39.23
2023-03-16T18:14:37.148Z,39.44
2023-03-16T18:17:23.127Z,39.16
2023-03-16T18:19:50.344Z,39.53
2023-03-16T18:22:19.505Z,40.73
2023-03-16T18:24:48.481Z,41.07
2023-03-16T18:27:16.218Z,40.21
2023-03-16T18:29:44.470Z,40.29
2023-03-16T18:32:27.445Z,41.29
2023-03-16T18:34:54.868Z,41.49
2023-03-16T18:37:23.577Z,41.35
2023-03-16T18:39:51.606Z,41.20
2023-03-16T18:42:20.107Z,42.67
2023-03-16T18:44:47.486Z,41.45
2023-03-16T18:47:17.210Z,40.86
2023-03-16T18:49:49.593Z,40.52
2023-03-16T18:52:27.974Z,40.94
2023-03-16T18:54:55.795Z,42.06
2023-03-16T18:57:24.639Z,42.66
2023-03-16T18:59:52.243Z,42.50
2023-03-16T19:02:30.290Z,43.25
2023-03-16T19:04:58.466Z,42.89
2023-03-16T19:07:32.884Z,40.89
2023-03-16T19:10:02.501Z,42.37
2023-03-16T19:12:31.160Z,42.88
2023-03-16T19:14:58.417Z,43.13
2023-03-16T19:17:26.018Z,44.12
2023-03-16T19:19:53.300Z,42.76
2023-03-16T19:22:21.912Z,44.22
2023-03-16T19:24:53.160Z,45.38
2023-03-16T19:27:33.639Z,45.08
2023-03-16T19:30:00.920Z,46.01
2023-03-16T19:32:28.221Z,46.15
2023-03-16T19:34:55.740Z,48.05
2023-03-16T19:37:25.013Z,47.98
2023-03-16T19:39:52.321Z,46.89
2023-03-16T19:42:26.620Z,47.89
2023-03-16T19:44:53.889Z,49.51
2023-03-16T19:47:29.500Z,48.42
2023-03-16T19:49:57.488Z,47.41
2023-03-16T19:52:25.491Z,48.28
2023-03-16T19:54:52.733Z,48.03
2023-03-16T19:57:20.084Z,49.87
2023-03-16T19:59:53.560Z,50.33
2023-03-16T20:02:35.746Z,50.74
2023-03-16T20:05:03.698Z,49.23
2023-03-16T20:07:34.505Z,50.80
2023-03-16T20:10:02.042Z,51.90
2023-03-16T20:12:29.402Z,52.23
2023-03-16T20:14:57.191Z,53.13
2023-03-16T20:17:28.727Z,51.96
2023-03-16T20:19:56.502Z,53.13
2023-03-16T20:22:28.179Z,53.58
2023-03-16T20:24:57.945Z,52.58
2023-03-16T20:27:27.730Z,52.52
2023-03-16T20:29:55.026Z,53.47
2023-03-16T20:32:24.727Z,53.25
2023-03-16T20:34:53.625Z,53.58
2023-03-16T20:37:23.870Z,53.45
2023-03-16T20:39:54.943Z,54.29
2023-03-16T20:42:33.107Z,54.87
2023-03-16T20:45:00.898Z,55.15
2023-03-16T20:47:28.218Z,54.41
2023-03-16T20:49:57.428Z,54.00
2023-03-16T20:52:27.697Z,55.66
2023-03-16T20:54:57.323Z,54.34
2023-03-16T20:57:26.158Z,52.07
2023-03-16T20:59:54.625Z,54.09
2023-03-16T21:02:33.889Z,53.96
2023-03-16T21:05:02.136Z,54.01
2023-03-16T21:07:29.837Z,53.79
2023-03-16T21:09:57.146Z,54.32
2023-03-16T21:12:34.859Z,54.13
2023-03-16T21:15:02.657Z,55.07
2023-03-16T21:17:34.329Z,54.76
2023-03-16T21:20:01.716Z,53.86
2023-03-16T21:22:32.684Z,54.68
2023-03-16T21:24:59.965Z,55.40
2023-03-16T21:27:31.385Z,54.94
2023-03-16T21:30:00.647Z,55.00
2023-03-16T21:32:27.999Z,54.95
2023-03-16T21:34:55.349Z,55.19
2023-03-16T21:37:24.254Z,54.84
2023-03-16T21:39:54.706Z,54.40
2023-03-16T21:42:22.227Z,54.47
2023-03-16T21:44:49.460Z,54.64
2023-03-16T21:47:25.786Z,55.10
2023-03-16T21:49:54.642Z,55.47
2023-03-16T21:52:27.815Z,56.78
2023-03-16T21:54:55.723Z,55.53
2023-03-16T21:57:22.988Z,56.19
2023-03-16T21:59:50.510Z,55.70
2023-03-16T22:02:23.176Z,55.39
2023-03-16T22:04:51.135Z,56.21
2023-03-16T22:07:18.637Z,56.63
2023-03-16T22:09:46.001Z,57.29
2023-03-16T22:12:13.376Z,56.44
2023-03-16T22:14:40.732Z,57.14
2023-03-16T22:17:08.561Z,56.77
2023-03-16T22:19:35.894Z,57.57
2023-03-16T22:22:03.174Z,58.44
2023-03-16T22:24:30.886Z,58.38
2023-03-16T22:26:58.629Z,57.61
2023-03-16T22:29:30.236Z,57.74
2023-03-16T22:31:59.510Z,56.92
2023-03-16T22:34:32.588Z,56.54
2023-03-16T22:36:59.809Z,56.34
2023-03-16T22:39:27.152Z,56.14
2023-03-16T22:41:54.457Z,55.54
2023-03-16T22:44:22.807Z,56.45
2023-03-16T22:46:50.794Z,56.31
2023-03-16T22:49:20.931Z,57.70
2023-03-16T22:51:48.229Z,57.83
2023-03-16T22:54:16.670Z,58.71
2023-03-16T22:56:44.583Z,58.63
2023-03-16T22:59:14.148Z,58.49
2023-03-16T23:01:43.562Z,59.11
2023-03-16T23:04:15.359Z,58.17
2023-03-16T23:06:43.410Z,59.13
2023-03-16T23:09:15.357Z,58.57
2023-03-16T23:11:43.693Z,58.90
2023-03-16T23:14:15.071Z,59.61
2023-03-16T23:16:42.572Z,58.71
2023-03-16T23:19:30.029Z,59.44
2023-03-16T23:22:03.419Z,59.63
2023-03-16T23:24:31.803Z,60.85
2023-03-16T23:26:59.144Z,60.69
2023-03-16T23:29:26.757Z,61.47
2023-03-16T23:31:54.628Z,60.97
2023-03-16T23:34:23.152Z,60.06
2023-03-16T23:36:50.902Z,59.93
2023-03-16T23:39:18.505Z,60.80
2023-03-16T23:41:46.912Z,61.20
2023-03-16T23:44:24.966Z,61.72
2023-03-16T23:46:53.567Z,62.19
2023-03-16T23:49:22.887Z,62.36
2023-03-16T23:51:50.317Z,62.59
2023-03-16T23:54:19.786Z,62.49
2023-03-16T23:56:47.158Z,63.42
2023-03-16T23:59:14.536Z,63.14
